Eems Servant — PBTI — position and weather

sailwx.info

Track history (hours):
 
Tides and Currents Weather Stations Pressure Air Temp Water Temp Dewpoint Dewpoint Depression Visibility Wind Speed Wind Dir Waves Ship Positions

Eems Servant

Last reported at 2017-Aug-19 01:17 UTC. Time now 2017-Aug-19 01:54 UTC.
Position N 54°33' E 012°18'.

Length 87 m; draft 3.9 m.

Type: Cargo ship. MMSI: 246236000.

Date/timePositionNaut miles runAvg speedWind from/ knotsBaromVisibWave heightAir tempDewpointWater temp
2017-Aug-19 01:17N 54°33' E 012°18'2 8.6
2017-Aug-19 01:00N 54°31' E 012°17'4 8.5
2017-Aug-19 00:30N 54°27' E 012°13'4 8.2
2017-Aug-19 00:00N 54°24' E 012°07'4 8.9
2017-Aug-18 23:30N 54°24' E 011°60'4 8.9
2017-Aug-18 23:00N 54°24' E 011°52'19 8.7
2017-Aug-18 20:49N 54°31' E 011°22'3 8.3
2017-Aug-18 20:30N 54°32' E 011°18'4 8.0
2017-Aug-18 20:00N 54°34' E 011°11'4 8.5
2017-Aug-18 19:30N 54°35' E 011°04'4 8.7
2017-Aug-18 19:00N 54°36' E 010°57'4 7.9
2017-Aug-18 18:30N 54°38' E 010°51'4 7.9
2017-Aug-18 18:00N 54°40' E 010°45'31 0.7
2017-Aug-16 23:58N 55°00' E 010°05'4 9.7
2017-Aug-16 23:30N 54°57' E 010°10'5 9.8
2017-Aug-16 23:00N 54°53' E 010°15'5 9.6
2017-Aug-16 22:27N 54°49' E 010°21'4 9.4
2017-Aug-16 22:00N 54°46' E 010°27'5 9.7
2017-Aug-16 21:30N 54°44' E 010°34'5 9.8
2017-Aug-16 21:00N 54°42' E 010°42'5 9.3
2017-Aug-16 20:30N 54°44' E 010°49'5 9.8
2017-Aug-16 20:00N 54°49' E 010°51'5 9.5
2017-Aug-16 19:30N 54°53' E 010°53'4 8.6
2017-Aug-16 19:00N 54°57' E 010°58'5 9.4
2017-Aug-16 18:30N 54°59' E 011°04'5 9.5
2017-Aug-16 18:00N 55°02' E 011°11'5 9.4
2017-Aug-16 17:30N 55°04' E 011°19'5 9.3
2017-Aug-16 17:00N 55°03' E 011°27'5 9.6
2017-Aug-16 16:29N 55°02' E 011°35'35 2.0
2017-Aug-15 22:26N 55°03' E 012°37'3 7.9
2017-Aug-15 22:00N 55°06' E 012°37'4 7.5
2017-Aug-15 21:30N 55°10' E 012°38'4 7.5
2017-Aug-15 21:01N 55°14' E 012°38'4 7.3
2017-Aug-15 20:30N 55°18' E 012°38'4 7.4
2017-Aug-15 20:01N 55°21' E 012°38'4 7.6
2017-Aug-15 19:30N 55°25' E 012°39'4 7.6
2017-Aug-15 19:00N 55°29' E 012°41'4 7.5
2017-Aug-15 18:30N 55°32' E 012°42'3 6.6
2017-Aug-15 18:00N 55°36' E 012°42'3 6.1
2017-Aug-15 17:30N 55°39' E 012°41'2 4.5
2017-Aug-15 16:58N 55°41' E 012°39'0 0.0
2017-Aug-15 16:28N 55°41' E 012°39'0 0.0
2017-Aug-15 15:58N 55°41' E 012°39'0 0.0
2017-Aug-15 15:28N 55°41' E 012°39'0 0.0
2017-Aug-15 14:58N 55°41' E 012°39'0 0.0
2017-Aug-15 14:28N 55°41' E 012°39'0 0.0
2017-Aug-15 13:58N 55°41' E 012°39'0 0.0
2017-Aug-15 13:28N 55°41' E 012°39'0 0.0
2017-Aug-15 12:58N 55°41' E 012°39'0 0.0
2017-Aug-15 12:28N 55°41' E 012°39'0 0.0
2017-Aug-15 11:58N 55°41' E 012°39'0 0.0
2017-Aug-15 11:28N 55°41' E 012°39'0 0.0
2017-Aug-15 10:58N 55°41' E 012°39'0 0.0
2017-Aug-15 10:28N 55°41' E 012°39'0 0.0
2017-Aug-15 09:58N 55°41' E 012°39'0 0.0
2017-Aug-15 09:28N 55°41' E 012°39'0 0.1
2017-Aug-15 09:00N 55°41' E 012°39'1 2.6
2017-Aug-15 08:31N 55°40' E 012°41'510.2
2017-Aug-15 08:00N 55°35' E 012°42'510.8
2017-Aug-15 07:30N 55°29' E 012°42'510.4
2017-Aug-15 07:00N 55°24' E 012°41'610.3
2017-Aug-15 06:28N 55°19' E 012°40'2810.0
2017-Aug-15 03:41N 54°51' E 012°44'6 8.9
2017-Aug-15 03:02N 54°45' E 012°43'0 9.5
2017-Aug-15 03:00N 54°45' E 012°42'5 9.2
2017-Aug-15 02:30N 54°42' E 012°36'23 9.3
2017-Aug-15 00:02N 54°25' E 012°10'0 9.7
2017-Aug-15 00:00N 54°25' E 012°10'5 9.3
2017-Aug-14 23:30N 54°24' E 012°02'5 9.2
2017-Aug-14 23:00N 54°21' E 011°55'23 9.1
2017-Aug-14 20:31N 54°06' E 011°27'0 8.1
2017-Aug-14 20:30N 54°06' E 011°27'6 7.0
2017-Aug-14 19:41N 54°01' E 011°22'2 7.9
2017-Aug-14 19:29N 53°59' E 011°22'3 6.6
2017-Aug-14 19:00N 53°57' E 011°25'3 5.0
2017-Aug-14 18:28N 53°54' E 011°27'0 0.0
2017-Aug-14 17:58N 53°54' E 011°27'0 0.0
2017-Aug-14 17:28N 53°54' E 011°27'0 0.0
2017-Aug-14 16:58N 53°54' E 011°27'0 0.0
2017-Aug-14 16:28N 53°54' E 011°27'0 0.0
2017-Aug-14 15:58N 53°54' E 011°27'0 0.0
2017-Aug-14 15:28N 53°54' E 011°27'0 0.0
2017-Aug-14 14:58N 53°54' E 011°27'0 0.0
2017-Aug-14 14:28N 53°54' E 011°27'0 0.0
2017-Aug-14 13:58N 53°54' E 011°27'0 0.0
2017-Aug-14 13:28N 53°54' E 011°27'0 0.0
2017-Aug-14 12:58N 53°54' E 011°27'0 0.0
2017-Aug-14 12:28N 53°54' E 011°27'0 0.0
2017-Aug-14 11:58N 53°54' E 011°27'0 0.0
2017-Aug-14 11:28N 53°54' E 011°27'0 0.0
2017-Aug-14 10:58N 53°54' E 011°27'0 0.0
2017-Aug-14 09:57N 53°54' E 011°27'0 0.0
2017-Aug-14 09:30N 53°54' E 011°27'0 0.0
2017-Aug-14 08:57N 53°54' E 011°27'0 0.0
2017-Aug-14 08:30N 53°54' E 011°27'0 0.0
2017-Aug-14 08:00N 53°54' E 011°27'0 0.0
2017-Aug-14 07:30N 53°54' E 011°27'0 0.0
2017-Aug-14 07:00N 53°54' E 011°27'0 0.0
2017-Aug-14 06:30N 53°54' E 011°27'0 0.0
2017-Aug-14 06:00N 53°54' E 011°27'0 0.0
2017-Aug-14 05:30N 53°54' E 011°27'0 0.0
2017-Aug-14 05:00N 53°54' E 011°27'0 0.0
2017-Aug-14 04:30N 53°54' E 011°27'0 0.0
2017-Aug-14 04:00N 53°54' E 011°27'0 0.0
2017-Aug-14 03:30N 53°54' E 011°27'0 0.0
2017-Aug-14 02:57N 53°54' E 011°27'0 0.0
2017-Aug-14 02:30N 53°54' E 011°27'0 0.0
2017-Aug-14 02:00N 53°54' E 011°27'0 0.0
2017-Aug-14 01:30N 53°54' E 011°27'0 0.0
2017-Aug-14 01:00N 53°54' E 011°27'0 0.0
2017-Aug-14 00:30N 53°54' E 011°27'0 0.0
2017-Aug-14 00:00N 53°54' E 011°27'0 0.0
2017-Aug-13 23:30N 53°54' E 011°27'0 0.0
2017-Aug-13 23:00N 53°54' E 011°27'0 0.0
2017-Aug-13 22:30N 53°54' E 011°27'0 0.0
2017-Aug-13 22:00N 53°54' E 011°27'0 0.0
2017-Aug-13 21:30N 53°54' E 011°27'0 0.0
2017-Aug-13 21:00N 53°54' E 011°27'0 0.0
2017-Aug-13 20:30N 53°54' E 011°27'0 0.0
2017-Aug-13 19:54N 53°54' E 011°27'0 0.0
2017-Aug-13 19:30N 53°54' E 011°27'0 0.0
2017-Aug-13 18:57N 53°54' E 011°27'0 0.0
2017-Aug-13 18:30N 53°54' E 011°27'0 0.0
2017-Aug-13 18:00N 53°54' E 011°27'0 0.0
2017-Aug-13 17:27N 53°54' E 011°27'0 0.0
2017-Aug-13 17:00N 53°54' E 011°27'0 0.0
2017-Aug-13 16:30N 53°54' E 011°27'0 0.0
2017-Aug-13 16:00N 53°54' E 011°27'0 0.0
2017-Aug-13 15:30N 53°54' E 011°27'0 0.0
2017-Aug-13 14:57N 53°54' E 011°27'0 0.0
2017-Aug-13 14:30N 53°54' E 011°27'0 0.0
2017-Aug-13 14:00N 53°54' E 011°27'0 0.0
2017-Aug-13 13:30N 53°54' E 011°27'0 0.0
2017-Aug-13 13:00N 53°54' E 011°27'0 0.0
2017-Aug-13 12:30N 53°54' E 011°27'0 0.0
2017-Aug-13 12:00N 53°54' E 011°27'0 0.0
2017-Aug-13 11:30N 53°54' E 011°27'0 0.0
2017-Aug-13 11:00N 53°54' E 011°27'0 0.0
2017-Aug-13 10:30N 53°54' E 011°27'0 0.0
2017-Aug-13 10:00N 53°54' E 011°27'0 0.0
2017-Aug-13 09:30N 53°54' E 011°27'0 0.0
2017-Aug-13 09:00N 53°54' E 011°27'0 0.0
2017-Aug-13 08:30N 53°54' E 011°27'0 0.0
2017-Aug-13 08:00N 53°54' E 011°27'0 0.0
2017-Aug-13 07:30N 53°54' E 011°27'0 0.0
2017-Aug-13 07:00N 53°54' E 011°27'0 0.0
2017-Aug-13 06:30N 53°54' E 011°27'0 0.0
2017-Aug-13 06:00N 53°54' E 011°27'0 0.0
2017-Aug-13 05:30N 53°54' E 011°27'0 0.0
2017-Aug-13 05:00N 53°54' E 011°27'0 0.0
2017-Aug-13 04:30N 53°54' E 011°27'0 0.0
2017-Aug-13 04:00N 53°54' E 011°27'0 0.0
2017-Aug-13 03:30N 53°54' E 011°27'0 0.0
2017-Aug-13 03:00N 53°54' E 011°27'0 0.0
2017-Aug-13 02:30N 53°54' E 011°27'0 0.0
2017-Aug-13 02:00N 53°54' E 011°27'0 0.0
2017-Aug-13 01:30N 53°54' E 011°27'0 0.0
2017-Aug-13 01:00N 53°54' E 011°27'0 0.0
2017-Aug-13 00:30N 53°54' E 011°27'0 0.0
2017-Aug-13 00:00N 53°54' E 011°27'0 0.0
2017-Aug-12 23:30N 53°54' E 011°27'0 0.0
2017-Aug-12 23:00N 53°54' E 011°27'0 0.0
2017-Aug-12 22:27N 53°54' E 011°27'0 0.0
2017-Aug-12 22:00N 53°54' E 011°27'0 0.0
2017-Aug-12 21:30N 53°54' E 011°27'0 0.0
2017-Aug-12 21:00N 53°54' E 011°27'0 0.0
2017-Aug-12 20:30N 53°54' E 011°27'0 0.0
2017-Aug-12 20:00N 53°54' E 011°27'0 0.0
2017-Aug-12 19:24N 53°54' E 011°27'0 0.0
2017-Aug-12 19:00N 53°54' E 011°27'0 0.0
2017-Aug-12 18:30N 53°54' E 011°27'0 0.0
2017-Aug-12 18:00N 53°54' E 011°27'0 0.0
2017-Aug-12 17:30N 53°54' E 011°27'0 0.0
2017-Aug-12 17:00N 53°54' E 011°27'0 0.0
2017-Aug-12 16:30N 53°54' E 011°27'0 0.0
2017-Aug-12 16:00N 53°54' E 011°27'0 0.0
2017-Aug-12 15:30N 53°54' E 011°27'0 0.0
2017-Aug-12 15:00N 53°54' E 011°27'0 0.0
2017-Aug-12 14:30N 53°54' E 011°27'0 0.0
2017-Aug-12 14:00N 53°54' E 011°27'0 0.0
2017-Aug-12 13:30N 53°54' E 011°27'0 0.0
2017-Aug-12 13:00N 53°54' E 011°27'0 0.0
2017-Aug-12 12:30N 53°54' E 011°27'0 0.0
2017-Aug-12 12:00N 53°54' E 011°27'0 0.0
2017-Aug-12 11:30N 53°54' E 011°27'0 0.0
2017-Aug-12 11:00N 53°54' E 011°27'0 0.0
2017-Aug-12 10:30N 53°54' E 011°27'0 0.0
2017-Aug-12 10:00N 53°54' E 011°27'0 0.0
2017-Aug-12 09:31N 53°54' E 011°27'1 1.6
2017-Aug-12 09:00N 53°55' E 011°26'3 5.5
2017-Aug-12 08:31N 53°57' E 011°24'4 6.8
2017-Aug-12 07:52N 54°01' E 011°20'3 7.0
2017-Aug-12 07:30N 54°02' E 011°24'23 8.3
2017-Aug-12 04:47N 54°24' E 011°21'2 8.5
2017-Aug-12 04:30N 54°27' E 011°21'4 8.7
2017-Aug-12 04:01N 54°31' E 011°20'4 8.0
2017-Aug-12 03:31N 54°34' E 011°15'4 8.7
2017-Aug-12 03:00N 54°36' E 011°08'4 8.7
2017-Aug-12 02:31N 54°38' E 011°02'4 8.6
2017-Aug-12 02:00N 54°41' E 010°56'4 7.6
2017-Aug-12 01:30N 54°44' E 010°52'4 8.7
2017-Aug-12 01:01N 54°48' E 010°52'4 8.0
2017-Aug-12 00:31N 54°52' E 010°52'4 7.6
2017-Aug-12 00:00N 54°56' E 010°55'4 8.1
2017-Aug-11 23:30N 54°59' E 010°60'30 7.8
2017-Aug-11 19:34N 55°29' E 010°53'1 8.4
2017-Aug-11 19:28N 55°30' E 010°53'4 8.2
2017-Aug-11 18:59N 55°33' E 010°50'4 8.2
2017-Aug-11 18:30N 55°37' E 010°47'4 7.9
2017-Aug-11 18:00N 55°41' E 010°47'4 8.6
2017-Aug-11 17:29N 55°45' E 010°48'4 8.8
2017-Aug-11 17:00N 55°50' E 010°49'4 8.5
2017-Aug-11 16:29N 55°53' E 010°53'4 8.4
2017-Aug-11 16:00N 55°56' E 010°58'91 2.0
2017-Aug-09 17:53N 57°27' E 010°33'  
Track history (hours):
 
Tides and Currents Weather Stations Pressure Air Temp Water Temp Dewpoint Dewpoint Depression Visibility Wind Speed Wind Dir Waves Ship Positions

Eems Servant

Last reported at 2017-Aug-19 01:17 UTC. Time now 2017-Aug-19 01:54 UTC.
Position N 54°33' E 012°18'.

Length 87 m; draft 3.9 m.

Type: Cargo ship. MMSI: 246236000.

Date/timePositionNaut miles runAvg speedWind from/ knotsBaromVisibWave heightAir tempDewpointWater temp
2017-Aug-19 01:17N 54°33' E 012°18'2 8.6
2017-Aug-19 01:00N 54°31' E 012°17'4 8.5
2017-Aug-19 00:30N 54°27' E 012°13'4 8.2
2017-Aug-19 00:00N 54°24' E 012°07'4 8.9
2017-Aug-18 23:30N 54°24' E 011°60'4 8.9
2017-Aug-18 23:00N 54°24' E 011°52'19 8.7
2017-Aug-18 20:49N 54°31' E 011°22'3 8.3
2017-Aug-18 20:30N 54°32' E 011°18'4 8.0
2017-Aug-18 20:00N 54°34' E 011°11'4 8.5
2017-Aug-18 19:30N 54°35' E 011°04'4 8.7
2017-Aug-18 19:00N 54°36' E 010°57'4 7.9
2017-Aug-18 18:30N 54°38' E 010°51'4 7.9
2017-Aug-18 18:00N 54°40' E 010°45'31 0.7
2017-Aug-16 23:58N 55°00' E 010°05'4 9.7
2017-Aug-16 23:30N 54°57' E 010°10'5 9.8
2017-Aug-16 23:00N 54°53' E 010°15'5 9.6
2017-Aug-16 22:27N 54°49' E 010°21'4 9.4
2017-Aug-16 22:00N 54°46' E 010°27'5 9.7
2017-Aug-16 21:30N 54°44' E 010°34'5 9.8
2017-Aug-16 21:00N 54°42' E 010°42'5 9.3
2017-Aug-16 20:30N 54°44' E 010°49'5 9.8
2017-Aug-16 20:00N 54°49' E 010°51'5 9.5
2017-Aug-16 19:30N 54°53' E 010°53'4 8.6
2017-Aug-16 19:00N 54°57' E 010°58'5 9.4
2017-Aug-16 18:30N 54°59' E 011°04'5 9.5
2017-Aug-16 18:00N 55°02' E 011°11'5 9.4
2017-Aug-16 17:30N 55°04' E 011°19'5 9.3
2017-Aug-16 17:00N 55°03' E 011°27'5 9.6
2017-Aug-16 16:29N 55°02' E 011°35'35 2.0
2017-Aug-15 22:26N 55°03' E 012°37'3 7.9
2017-Aug-15 22:00N 55°06' E 012°37'4 7.5
2017-Aug-15 21:30N 55°10' E 012°38'4 7.5
2017-Aug-15 21:01N 55°14' E 012°38'4 7.3
2017-Aug-15 20:30N 55°18' E 012°38'4 7.4
2017-Aug-15 20:01N 55°21' E 012°38'4 7.6
2017-Aug-15 19:30N 55°25' E 012°39'4 7.6
2017-Aug-15 19:00N 55°29' E 012°41'4 7.5
2017-Aug-15 18:30N 55°32' E 012°42'3 6.6
2017-Aug-15 18:00N 55°36' E 012°42'3 6.1
2017-Aug-15 17:30N 55°39' E 012°41'2 4.5
2017-Aug-15 16:58N 55°41' E 012°39'0 0.0
2017-Aug-15 16:28N 55°41' E 012°39'0 0.0
2017-Aug-15 15:58N 55°41' E 012°39'0 0.0
2017-Aug-15 15:28N 55°41' E 012°39'0 0.0
2017-Aug-15 14:58N 55°41' E 012°39'0 0.0
2017-Aug-15 14:28N 55°41' E 012°39'0 0.0
2017-Aug-15 13:58N 55°41' E 012°39'0 0.0
2017-Aug-15 13:28N 55°41' E 012°39'0 0.0
2017-Aug-15 12:58N 55°41' E 012°39'0 0.0
2017-Aug-15 12:28N 55°41' E 012°39'0 0.0
2017-Aug-15 11:58N 55°41' E 012°39'0 0.0
2017-Aug-15 11:28N 55°41' E 012°39'0 0.0
2017-Aug-15 10:58N 55°41' E 012°39'0 0.0
2017-Aug-15 10:28N 55°41' E 012°39'0 0.0
2017-Aug-15 09:58N 55°41' E 012°39'0 0.0
2017-Aug-15 09:28N 55°41' E 012°39'0 0.1
2017-Aug-15 09:00N 55°41' E 012°39'1 2.6
2017-Aug-15 08:31N 55°40' E 012°41'510.2
2017-Aug-15 08:00N 55°35' E 012°42'510.8
2017-Aug-15 07:30N 55°29' E 012°42'510.4
2017-Aug-15 07:00N 55°24' E 012°41'610.3
2017-Aug-15 06:28N 55°19' E 012°40'2810.0
2017-Aug-15 03:41N 54°51' E 012°44'6 8.9
2017-Aug-15 03:02N 54°45' E 012°43'0 9.5
2017-Aug-15 03:00N 54°45' E 012°42'5 9.2
2017-Aug-15 02:30N 54°42' E 012°36'23 9.3
2017-Aug-15 00:02N 54°25' E 012°10'0 9.7
2017-Aug-15 00:00N 54°25' E 012°10'5 9.3
2017-Aug-14 23:30N 54°24' E 012°02'5 9.2
2017-Aug-14 23:00N 54°21' E 011°55'23 9.1
2017-Aug-14 20:31N 54°06' E 011°27'0 8.1
2017-Aug-14 20:30N 54°06' E 011°27'6 7.0
2017-Aug-14 19:41N 54°01' E 011°22'2 7.9
2017-Aug-14 19:29N 53°59' E 011°22'3 6.6
2017-Aug-14 19:00N 53°57' E 011°25'3 5.0
2017-Aug-14 18:28N 53°54' E 011°27'0 0.0
2017-Aug-14 17:58N 53°54' E 011°27'0 0.0
2017-Aug-14 17:28N 53°54' E 011°27'0 0.0
2017-Aug-14 16:58N 53°54' E 011°27'0 0.0
2017-Aug-14 16:28N 53°54' E 011°27'0 0.0
2017-Aug-14 15:58N 53°54' E 011°27'0 0.0
2017-Aug-14 15:28N 53°54' E 011°27'0 0.0
2017-Aug-14 14:58N 53°54' E 011°27'0 0.0
2017-Aug-14 14:28N 53°54' E 011°27'0 0.0
2017-Aug-14 13:58N 53°54' E 011°27'0 0.0
2017-Aug-14 13:28N 53°54' E 011°27'0 0.0
2017-Aug-14 12:58N 53°54' E 011°27'0 0.0
2017-Aug-14 12:28N 53°54' E 011°27'0 0.0
2017-Aug-14 11:58N 53°54' E 011°27'0 0.0
2017-Aug-14 11:28N 53°54' E 011°27'0 0.0
2017-Aug-14 10:58N 53°54' E 011°27'0 0.0
2017-Aug-14 09:57N 53°54' E 011°27'0 0.0
2017-Aug-14 09:30N 53°54' E 011°27'0 0.0
2017-Aug-14 08:57N 53°54' E 011°27'0 0.0
2017-Aug-14 08:30N 53°54' E 011°27'0 0.0
2017-Aug-14 08:00N 53°54' E 011°27'0 0.0
2017-Aug-14 07:30N 53°54' E 011°27'0 0.0
2017-Aug-14 07:00N 53°54' E 011°27'0 0.0
2017-Aug-14 06:30N 53°54' E 011°27'0 0.0
2017-Aug-14 06:00N 53°54' E 011°27'0 0.0
2017-Aug-14 05:30N 53°54' E 011°27'0 0.0
2017-Aug-14 05:00N 53°54' E 011°27'0 0.0
2017-Aug-14 04:30N 53°54' E 011°27'0 0.0
2017-Aug-14 04:00N 53°54' E 011°27'0 0.0
2017-Aug-14 03:30N 53°54' E 011°27'0 0.0
2017-Aug-14 02:57N 53°54' E 011°27'0 0.0
2017-Aug-14 02:30N 53°54' E 011°27'0 0.0
2017-Aug-14 02:00N 53°54' E 011°27'0 0.0
2017-Aug-14 01:30N 53°54' E 011°27'0 0.0
2017-Aug-14 01:00N 53°54' E 011°27'0 0.0
2017-Aug-14 00:30N 53°54' E 011°27'0 0.0
2017-Aug-14 00:00N 53°54' E 011°27'0 0.0
2017-Aug-13 23:30N 53°54' E 011°27'0 0.0
2017-Aug-13 23:00N 53°54' E 011°27'0 0.0
2017-Aug-13 22:30N 53°54' E 011°27'0 0.0
2017-Aug-13 22:00N 53°54' E 011°27'0 0.0
2017-Aug-13 21:30N 53°54' E 011°27'0 0.0
2017-Aug-13 21:00N 53°54' E 011°27'0 0.0
2017-Aug-13 20:30N 53°54' E 011°27'0 0.0
2017-Aug-13 19:54N 53°54' E 011°27'0 0.0
2017-Aug-13 19:30N 53°54' E 011°27'0 0.0
2017-Aug-13 18:57N 53°54' E 011°27'0 0.0
2017-Aug-13 18:30N 53°54' E 011°27'0 0.0
2017-Aug-13 18:00N 53°54' E 011°27'0 0.0
2017-Aug-13 17:27N 53°54' E 011°27'0 0.0
2017-Aug-13 17:00N 53°54' E 011°27'0 0.0
2017-Aug-13 16:30N 53°54' E 011°27'0 0.0
2017-Aug-13 16:00N 53°54' E 011°27'0 0.0
2017-Aug-13 15:30N 53°54' E 011°27'0 0.0
2017-Aug-13 14:57N 53°54' E 011°27'0 0.0
2017-Aug-13 14:30N 53°54' E 011°27'0 0.0
2017-Aug-13 14:00N 53°54' E 011°27'0 0.0
2017-Aug-13 13:30N 53°54' E 011°27'0 0.0
2017-Aug-13 13:00N 53°54' E 011°27'0 0.0
2017-Aug-13 12:30N 53°54' E 011°27'0 0.0
2017-Aug-13 12:00N 53°54' E 011°27'0 0.0
2017-Aug-13 11:30N 53°54' E 011°27'0 0.0
2017-Aug-13 11:00N 53°54' E 011°27'0 0.0
2017-Aug-13 10:30N 53°54' E 011°27'0 0.0
2017-Aug-13 10:00N 53°54' E 011°27'0 0.0
2017-Aug-13 09:30N 53°54' E 011°27'0 0.0
2017-Aug-13 09:00N 53°54' E 011°27'0 0.0
2017-Aug-13 08:30N 53°54' E 011°27'0 0.0
2017-Aug-13 08:00N 53°54' E 011°27'0 0.0
2017-Aug-13 07:30N 53°54' E 011°27'0 0.0
2017-Aug-13 07:00N 53°54' E 011°27'0 0.0
2017-Aug-13 06:30N 53°54' E 011°27'0 0.0
2017-Aug-13 06:00N 53°54' E 011°27'0 0.0
2017-Aug-13 05:30N 53°54' E 011°27'0 0.0
2017-Aug-13 05:00N 53°54' E 011°27'0 0.0
2017-Aug-13 04:30N 53°54' E 011°27'0 0.0
2017-Aug-13 04:00N 53°54' E 011°27'0 0.0
2017-Aug-13 03:30N 53°54' E 011°27'0 0.0
2017-Aug-13 03:00N 53°54' E 011°27'0 0.0
2017-Aug-13 02:30N 53°54' E 011°27'0 0.0
2017-Aug-13 02:00N 53°54' E 011°27'0 0.0
2017-Aug-13 01:30N 53°54' E 011°27'0 0.0
2017-Aug-13 01:00N 53°54' E 011°27'0 0.0
2017-Aug-13 00:30N 53°54' E 011°27'0 0.0
2017-Aug-13 00:00N 53°54' E 011°27'0 0.0
2017-Aug-12 23:30N 53°54' E 011°27'0 0.0
2017-Aug-12 23:00N 53°54' E 011°27'0 0.0
2017-Aug-12 22:27N 53°54' E 011°27'0 0.0
2017-Aug-12 22:00N 53°54' E 011°27'0 0.0
2017-Aug-12 21:30N 53°54' E 011°27'0 0.0
2017-Aug-12 21:00N 53°54' E 011°27'0 0.0
2017-Aug-12 20:30N 53°54' E 011°27'0 0.0
2017-Aug-12 20:00N 53°54' E 011°27'0 0.0
2017-Aug-12 19:24N 53°54' E 011°27'0 0.0
2017-Aug-12 19:00N 53°54' E 011°27'0 0.0
2017-Aug-12 18:30N 53°54' E 011°27'0 0.0
2017-Aug-12 18:00N 53°54' E 011°27'0 0.0
2017-Aug-12 17:30N 53°54' E 011°27'0 0.0
2017-Aug-12 17:00N 53°54' E 011°27'0 0.0
2017-Aug-12 16:30N 53°54' E 011°27'0 0.0
2017-Aug-12 16:00N 53°54' E 011°27'0 0.0
2017-Aug-12 15:30N 53°54' E 011°27'0 0.0
2017-Aug-12 15:00N 53°54' E 011°27'0 0.0
2017-Aug-12 14:30N 53°54' E 011°27'0 0.0
2017-Aug-12 14:00N 53°54' E 011°27'0 0.0
2017-Aug-12 13:30N 53°54' E 011°27'0 0.0
2017-Aug-12 13:00N 53°54' E 011°27'0 0.0
2017-Aug-12 12:30N 53°54' E 011°27'0 0.0
2017-Aug-12 12:00N 53°54' E 011°27'0 0.0
2017-Aug-12 11:30N 53°54' E 011°27'0 0.0
2017-Aug-12 11:00N 53°54' E 011°27'0 0.0
2017-Aug-12 10:30N 53°54' E 011°27'0 0.0
2017-Aug-12 10:00N 53°54' E 011°27'0 0.0
2017-Aug-12 09:31N 53°54' E 011°27'1 1.6
2017-Aug-12 09:00N 53°55' E 011°26'3 5.5
2017-Aug-12 08:31N 53°57' E 011°24'4 6.8
2017-Aug-12 07:52N 54°01' E 011°20'3 7.0
2017-Aug-12 07:30N 54°02' E 011°24'23 8.3
2017-Aug-12 04:47N 54°24' E 011°21'2 8.5
2017-Aug-12 04:30N 54°27' E 011°21'4 8.7
2017-Aug-12 04:01N 54°31' E 011°20'4 8.0
2017-Aug-12 03:31N 54°34' E 011°15'4 8.7
2017-Aug-12 03:00N 54°36' E 011°08'4 8.7
2017-Aug-12 02:31N 54°38' E 011°02'4 8.6
2017-Aug-12 02:00N 54°41' E 010°56'4 7.6
2017-Aug-12 01:30N 54°44' E 010°52'4 8.7
2017-Aug-12 01:01N 54°48' E 010°52'4 8.0
2017-Aug-12 00:31N 54°52' E 010°52'4 7.6
2017-Aug-12 00:00N 54°56' E 010°55'4 8.1
2017-Aug-11 23:30N 54°59' E 010°60'30 7.8
2017-Aug-11 19:34N 55°29' E 010°53'1 8.4
2017-Aug-11 19:28N 55°30' E 010°53'4 8.2
2017-Aug-11 18:59N 55°33' E 010°50'4 8.2
2017-Aug-11 18:30N 55°37' E 010°47'4 7.9
2017-Aug-11 18:00N 55°41' E 010°47'4 8.6
2017-Aug-11 17:29N 55°45' E 010°48'4 8.8
2017-Aug-11 17:00N 55°50' E 010°49'4 8.5
2017-Aug-11 16:29N 55°53' E 010°53'4 8.4
2017-Aug-11 16:00N 55°56' E 010°58'91 2.0
2017-Aug-09 17:53N 57°27' E 010°33'  

Dump ship's entire track history